sensor_id;sensor_type;location;lat;lon;timestamp;P1;durP1;ratioP1;P2;durP2;ratioP2
19830;SDS011;10076;52.008;4.708;2023-03-11T00:01:11;1.13;;;0.50;;
19830;SDS011;10076;52.008;4.708;2023-03-11T00:03:36;3.53;;;0.40;;
19830;SDS011;10076;52.008;4.708;2023-03-11T00:06:02;3.30;;;0.73;;
19830;SDS011;10076;52.008;4.708;2023-03-11T00:08:28;6.43;;;0.63;;
19830;SDS011;10076;52.008;4.708;2023-03-11T00:10:54;0.47;;;0.47;;
19830;SDS011;10076;52.008;4.708;2023-03-11T00:13:22;0.53;;;0.53;;
19830;SDS011;10076;52.008;4.708;2023-03-11T00:15:49;0.50;;;0.50;;
19830;SDS011;10076;52.008;4.708;2023-03-11T00:18:16;0.50;;;0.50;;
19830;SDS011;10076;52.008;4.708;2023-03-11T00:20:43;0.83;;;0.70;;
19830;SDS011;10076;52.008;4.708;2023-03-11T00:23:10;0.50;;;0.50;;
19830;SDS011;10076;52.008;4.708;2023-03-11T00:25:37;1.47;;;0.70;;
19830;SDS011;10076;52.008;4.708;2023-03-11T00:28:04;1.93;;;0.60;;
19830;SDS011;10076;52.008;4.708;2023-03-11T00:30:34;2.20;;;0.80;;
19830;SDS011;10076;52.008;4.708;2023-03-11T00:33:00;1.97;;;0.80;;
19830;SDS011;10076;52.008;4.708;2023-03-11T00:35:26;0.40;;;0.40;;
19830;SDS011;10076;52.008;4.708;2023-03-11T00:37:55;3.27;;;0.53;;
19830;SDS011;10076;52.008;4.708;2023-03-11T00:40:22;0.50;;;0.50;;
19830;SDS011;10076;52.008;4.708;2023-03-11T00:42:49;5.93;;;0.50;;
19830;SDS011;10076;52.008;4.708;2023-03-11T00:45:14;0.60;;;0.60;;
19830;SDS011;10076;52.008;4.708;2023-03-11T00:47:41;0.90;;;0.70;;
19830;SDS011;10076;52.008;4.708;2023-03-11T00:50:06;1.07;;;0.63;;
19830;SDS011;10076;52.008;4.708;2023-03-11T00:52:33;1.67;;;1.00;;
19830;SDS011;10076;52.008;4.708;2023-03-11T00:54:59;3.93;;;0.80;;
19830;SDS011;10076;52.008;4.708;2023-03-11T00:57:24;0.47;;;0.47;;
19830;SDS011;10076;52.008;4.708;2023-03-11T00:59:51;0.50;;;0.50;;
19830;SDS011;10076;52.008;4.708;2023-03-11T01:02:17;1.23;;;0.83;;
19830;SDS011;10076;52.008;4.708;2023-03-11T01:04:42;1.90;;;0.70;;
19830;SDS011;10076;52.008;4.708;2023-03-11T01:07:07;1.60;;;0.67;;
19830;SDS011;10076;52.008;4.708;2023-03-11T01:09:33;0.77;;;0.77;;
19830;SDS011;10076;52.008;4.708;2023-03-11T01:11:58;0.30;;;0.30;;
19830;SDS011;10076;52.008;4.708;2023-03-11T01:14:23;0.50;;;0.50;;
19830;SDS011;10076;52.008;4.708;2023-03-11T01:16:49;1.07;;;0.77;;
19830;SDS011;10076;52.008;4.708;2023-03-11T01:19:14;1.07;;;0.53;;
19830;SDS011;10076;52.008;4.708;2023-03-11T01:21:40;0.47;;;0.47;;
19830;SDS011;10076;52.008;4.708;2023-03-11T01:24:06;0.50;;;0.43;;
19830;SDS011;10076;52.008;4.708;2023-03-11T01:26:32;0.40;;;0.40;;
19830;SDS011;10076;52.008;4.708;2023-03-11T01:28:57;2.23;;;0.77;;
19830;SDS011;10076;52.008;4.708;2023-03-11T01:31:22;0.97;;;0.50;;
19830;SDS011;10076;52.008;4.708;2023-03-11T01:33:48;0.83;;;0.83;;
19830;SDS011;10076;52.008;4.708;2023-03-11T01:36:13;0.50;;;0.50;;
19830;SDS011;10076;52.008;4.708;2023-03-11T01:38:38;0.50;;;0.40;;
19830;SDS011;10076;52.008;4.708;2023-03-11T01:41:04;0.80;;;0.50;;
19830;SDS011;10076;52.008;4.708;2023-03-11T01:48:26;3.00;;;0.50;;
19830;SDS011;10076;52.008;4.708;2023-03-11T01:50:52;2.07;;;0.93;;
19830;SDS011;10076;52.008;4.708;2023-03-11T01:53:18;0.40;;;0.40;;
19830;SDS011;10076;52.008;4.708;2023-03-11T01:55:44;0.43;;;0.40;;
19830;SDS011;10076;52.008;4.708;2023-03-11T01:58:11;0.47;;;0.47;;
19830;SDS011;10076;52.008;4.708;2023-03-11T02:00:41;0.50;;;0.50;;
19830;SDS011;10076;52.008;4.708;2023-03-11T02:03:13;0.73;;;0.60;;
19830;SDS011;10076;52.008;4.708;2023-03-11T02:06:04;0.30;;;0.30;;
19830;SDS011;10076;52.008;4.708;2023-03-11T02:08:32;0.60;;;0.50;;
19830;SDS011;10076;52.008;4.708;2023-03-11T02:10:58;0.40;;;0.40;;
19830;SDS011;10076;52.008;4.708;2023-03-11T02:13:26;1.50;;;0.53;;
19830;SDS011;10076;52.008;4.708;2023-03-11T02:15:52;0.43;;;0.43;;
19830;SDS011;10076;52.008;4.708;2023-03-11T02:18:17;1.23;;;0.40;;
19830;SDS011;10076;52.008;4.708;2023-03-11T02:23:18;2.57;;;0.60;;
19830;SDS011;10076;52.008;4.708;2023-03-11T02:25:57;0.83;;;0.50;;
19830;SDS011;10076;52.008;4.708;2023-03-11T02:28:30;0.67;;;0.67;;
19830;SDS011;10076;52.008;4.708;2023-03-11T02:30:57;3.80;;;0.83;;
19830;SDS011;10076;52.008;4.708;2023-03-11T02:33:24;0.50;;;0.50;;
19830;SDS011;10076;52.008;4.708;2023-03-11T02:35:53;0.50;;;0.50;;
19830;SDS011;10076;52.008;4.708;2023-03-11T02:38:18;4.70;;;0.97;;
19830;SDS011;10076;52.008;4.708;2023-03-11T02:40:48;0.60;;;0.60;;
19830;SDS011;10076;52.008;4.708;2023-03-11T02:43:36;2.37;;;0.40;;
19830;SDS011;10076;52.008;4.708;2023-03-11T02:46:05;0.40;;;0.40;;
19830;SDS011;10076;52.008;4.708;2023-03-11T02:48:34;2.67;;;0.50;;
19830;SDS011;10076;52.008;4.708;2023-03-11T02:51:00;0.47;;;0.47;;
19830;SDS011;10076;52.008;4.708;2023-03-11T02:53:27;0.87;;;0.60;;
19830;SDS011;10076;52.008;4.708;2023-03-11T02:55:55;10.93;;;0.60;;
19830;SDS011;10076;52.008;4.708;2023-03-11T02:58:20;1.37;;;0.47;;
19830;SDS011;10076;52.008;4.708;2023-03-11T03:00:45;1.17;;;0.63;;
19830;SDS011;10076;52.008;4.708;2023-03-11T03:03:10;0.70;;;0.67;;
19830;SDS011;10076;52.008;4.708;2023-03-11T03:05:36;0.47;;;0.47;;
19830;SDS011;10076;52.008;4.708;2023-03-11T03:08:01;5.73;;;1.03;;
19830;SDS011;10076;52.008;4.708;2023-03-11T03:10:26;0.50;;;0.50;;
19830;SDS011;10076;52.008;4.708;2023-03-11T03:12:52;2.03;;;0.60;;
19830;SDS011;10076;52.008;4.708;2023-03-11T03:15:17;0.50;;;0.50;;
19830;SDS011;10076;52.008;4.708;2023-03-11T03:17:43;0.40;;;0.40;;
19830;SDS011;10076;52.008;4.708;2023-03-11T03:20:09;0.60;;;0.60;;
19830;SDS011;10076;52.008;4.708;2023-03-11T03:22:36;0.43;;;0.43;;
19830;SDS011;10076;52.008;4.708;2023-03-11T03:25:03;0.77;;;0.60;;
19830;SDS011;10076;52.008;4.708;2023-03-11T03:27:28;0.57;;;0.57;;
19830;SDS011;10076;52.008;4.708;2023-03-11T03:29:54;0.50;;;0.50;;
19830;SDS011;10076;52.008;4.708;2023-03-11T03:32:19;0.80;;;0.60;;
19830;SDS011;10076;52.008;4.708;2023-03-11T03:34:45;0.40;;;0.40;;
19830;SDS011;10076;52.008;4.708;2023-03-11T03:37:10;1.10;;;0.70;;
19830;SDS011;10076;52.008;4.708;2023-03-11T03:39:35;0.60;;;0.60;;
19830;SDS011;10076;52.008;4.708;2023-03-11T03:42:01;0.93;;;0.70;;
19830;SDS011;10076;52.008;4.708;2023-03-11T03:44:26;0.57;;;0.57;;
19830;SDS011;10076;52.008;4.708;2023-03-11T03:46:51;0.77;;;0.60;;
19830;SDS011;10076;52.008;4.708;2023-03-11T03:49:17;0.73;;;0.70;;
19830;SDS011;10076;52.008;4.708;2023-03-11T03:51:42;0.37;;;0.37;;
19830;SDS011;10076;52.008;4.708;2023-03-11T03:54:07;0.73;;;0.60;;
19830;SDS011;10076;52.008;4.708;2023-03-11T03:56:33;3.17;;;1.07;;
19830;SDS011;10076;52.008;4.708;2023-03-11T03:58:58;0.40;;;0.40;;
19830;SDS011;10076;52.008;4.708;2023-03-11T04:01:23;0.77;;;0.60;;
19830;SDS011;10076;52.008;4.708;2023-03-11T04:03:49;2.53;;;0.83;;
19830;SDS011;10076;52.008;4.708;2023-03-11T04:06:16;0.63;;;0.63;;
19830;SDS011;10076;52.008;4.708;2023-03-11T04:08:52;0.93;;;0.87;;
19830;SDS011;10076;52.008;4.708;2023-03-11T04:11:18;0.83;;;0.83;;
19830;SDS011;10076;52.008;4.708;2023-03-11T04:13:44;0.60;;;0.60;;
19830;SDS011;10076;52.008;4.708;2023-03-11T04:16:13;2.43;;;0.50;;
19830;SDS011;10076;52.008;4.708;2023-03-11T04:18:42;0.60;;;0.60;;
19830;SDS011;10076;52.008;4.708;2023-03-11T04:21:07;0.40;;;0.40;;
19830;SDS011;10076;52.008;4.708;2023-03-11T04:23:33;0.50;;;0.50;;
19830;SDS011;10076;52.008;4.708;2023-03-11T04:25:58;0.50;;;0.50;;
19830;SDS011;10076;52.008;4.708;2023-03-11T04:28:24;0.70;;;0.70;;
19830;SDS011;10076;52.008;4.708;2023-03-11T04:30:49;0.60;;;0.60;;
19830;SDS011;10076;52.008;4.708;2023-03-11T04:33:14;2.63;;;0.93;;
19830;SDS011;10076;52.008;4.708;2023-03-11T04:35:40;0.70;;;0.70;;
19830;SDS011;10076;52.008;4.708;2023-03-11T04:38:05;0.40;;;0.40;;
19830;SDS011;10076;52.008;4.708;2023-03-11T04:40:30;1.50;;;1.40;;
19830;SDS011;10076;52.008;4.708;2023-03-11T04:42:56;0.97;;;0.70;;
19830;SDS011;10076;52.008;4.708;2023-03-11T04:45:21;0.97;;;0.90;;
19830;SDS011;10076;52.008;4.708;2023-03-11T04:47:47;0.50;;;0.50;;
19830;SDS011;10076;52.008;4.708;2023-03-11T04:50:14;1.57;;;1.00;;
19830;SDS011;10076;52.008;4.708;2023-03-11T04:52:39;0.60;;;0.60;;
19830;SDS011;10076;52.008;4.708;2023-03-11T04:55:05;0.77;;;0.77;;
19830;SDS011;10076;52.008;4.708;2023-03-11T04:57:31;0.60;;;0.60;;
19830;SDS011;10076;52.008;4.708;2023-03-11T04:59:56;0.93;;;0.60;;
19830;SDS011;10076;52.008;4.708;2023-03-11T05:02:21;0.60;;;0.60;;
19830;SDS011;10076;52.008;4.708;2023-03-11T05:04:46;5.13;;;0.70;;
19830;SDS011;10076;52.008;4.708;2023-03-11T05:07:12;2.73;;;0.67;;
19830;SDS011;10076;52.008;4.708;2023-03-11T05:09:37;1.20;;;1.07;;
19830;SDS011;10076;52.008;4.708;2023-03-11T05:12:03;0.97;;;0.97;;
19830;SDS011;10076;52.008;4.708;2023-03-11T05:14:29;3.53;;;0.87;;
19830;SDS011;10076;52.008;4.708;2023-03-11T05:16:54;0.57;;;0.57;;
19830;SDS011;10076;52.008;4.708;2023-03-11T05:19:19;5.53;;;0.60;;
19830;SDS011;10076;52.008;4.708;2023-03-11T05:21:58;0.70;;;0.70;;
19830;SDS011;10076;52.008;4.708;2023-03-11T05:24:25;2.57;;;0.60;;
19830;SDS011;10076;52.008;4.708;2023-03-11T05:26:50;0.80;;;0.80;;
19830;SDS011;10076;52.008;4.708;2023-03-11T05:29:16;0.57;;;0.57;;
19830;SDS011;10076;52.008;4.708;2023-03-11T05:31:41;1.60;;;0.70;;
19830;SDS011;10076;52.008;4.708;2023-03-11T05:34:07;1.50;;;0.40;;
19830;SDS011;10076;52.008;4.708;2023-03-11T05:36:32;0.70;;;0.70;;
19830;SDS011;10076;52.008;4.708;2023-03-11T05:38:58;1.17;;;0.80;;
19830;SDS011;10076;52.008;4.708;2023-03-11T05:41:23;0.53;;;0.53;;
19830;SDS011;10076;52.008;4.708;2023-03-11T05:43:48;0.73;;;0.73;;
19830;SDS011;10076;52.008;4.708;2023-03-11T05:46:13;0.40;;;0.40;;
19830;SDS011;10076;52.008;4.708;2023-03-11T05:48:39;0.63;;;0.63;;
19830;SDS011;10076;52.008;4.708;2023-03-11T05:51:08;0.63;;;0.60;;
19830;SDS011;10076;52.008;4.708;2023-03-11T05:53:34;0.60;;;0.60;;
19830;SDS011;10076;52.008;4.708;2023-03-11T05:56:00;0.47;;;0.47;;
19830;SDS011;10076;52.008;4.708;2023-03-11T05:58:26;2.53;;;0.70;;
19830;SDS011;10076;52.008;4.708;2023-03-11T06:00:52;0.70;;;0.60;;
19830;SDS011;10076;52.008;4.708;2023-03-11T06:03:17;1.20;;;1.03;;
19830;SDS011;10076;52.008;4.708;2023-03-11T06:05:43;0.80;;;0.80;;
19830;SDS011;10076;52.008;4.708;2023-03-11T06:08:09;0.70;;;0.70;;
19830;SDS011;10076;52.008;4.708;2023-03-11T06:10:35;1.83;;;0.70;;
19830;SDS011;10076;52.008;4.708;2023-03-11T06:13:00;0.87;;;0.83;;
19830;SDS011;10076;52.008;4.708;2023-03-11T06:15:25;1.87;;;1.20;;
19830;SDS011;10076;52.008;4.708;2023-03-11T06:17:50;1.20;;;1.10;;
19830;SDS011;10076;52.008;4.708;2023-03-11T06:20:16;1.70;;;1.13;;
19830;SDS011;10076;52.008;4.708;2023-03-11T06:22:41;1.13;;;1.07;;
19830;SDS011;10076;52.008;4.708;2023-03-11T06:25:07;0.60;;;0.60;;
19830;SDS011;10076;52.008;4.708;2023-03-11T06:27:32;0.70;;;0.70;;
19830;SDS011;10076;52.008;4.708;2023-03-11T06:29:58;5.83;;;0.90;;
19830;SDS011;10076;52.008;4.708;2023-03-11T06:32:23;1.30;;;0.67;;
19830;SDS011;10076;52.008;4.708;2023-03-11T06:34:49;1.07;;;1.07;;
19830;SDS011;10076;52.008;4.708;2023-03-11T06:37:16;1.33;;;0.90;;
19830;SDS011;10076;52.008;4.708;2023-03-11T06:39:41;0.97;;;0.90;;
19830;SDS011;10076;52.008;4.708;2023-03-11T06:42:10;2.10;;;1.00;;
19830;SDS011;10076;52.008;4.708;2023-03-11T06:44:35;2.37;;;0.97;;
19830;SDS011;10076;52.008;4.708;2023-03-11T06:47:01;1.13;;;0.90;;
19830;SDS011;10076;52.008;4.708;2023-03-11T06:49:27;3.40;;;1.13;;
19830;SDS011;10076;52.008;4.708;2023-03-11T06:51:52;0.77;;;0.77;;
19830;SDS011;10076;52.008;4.708;2023-03-11T06:54:17;1.47;;;1.37;;
19830;SDS011;10076;52.008;4.708;2023-03-11T06:56:43;0.80;;;0.80;;
19830;SDS011;10076;52.008;4.708;2023-03-11T06:59:08;1.10;;;1.00;;
19830;SDS011;10076;52.008;4.708;2023-03-11T07:01:33;2.87;;;1.37;;
19830;SDS011;10076;52.008;4.708;2023-03-11T07:03:59;1.20;;;1.10;;
19830;SDS011;10076;52.008;4.708;2023-03-11T07:06:25;1.87;;;1.30;;
19830;SDS011;10076;52.008;4.708;2023-03-11T07:08:52;3.13;;;1.97;;
19830;SDS011;10076;52.008;4.708;2023-03-11T07:11:19;3.87;;;1.77;;
19830;SDS011;10076;52.008;4.708;2023-03-11T07:13:50;2.37;;;1.73;;
19830;SDS011;10076;52.008;4.708;2023-03-11T07:16:20;10.73;;;3.27;;
19830;SDS011;10076;52.008;4.708;2023-03-11T07:18:48;7.67;;;3.37;;
19830;SDS011;10076;52.008;4.708;2023-03-11T07:21:15;2.37;;;2.17;;
19830;SDS011;10076;52.008;4.708;2023-03-11T07:23:41;7.93;;;2.47;;
19830;SDS011;10076;52.008;4.708;2023-03-11T07:26:08;3.40;;;1.93;;
19830;SDS011;10076;52.008;4.708;2023-03-11T07:28:35;4.30;;;3.23;;
19830;SDS011;10076;52.008;4.708;2023-03-11T07:31:05;2.13;;;1.93;;
19830;SDS011;10076;52.008;4.708;2023-03-11T07:33:42;2.97;;;1.70;;
19830;SDS011;10076;52.008;4.708;2023-03-11T07:36:08;5.73;;;2.47;;
19830;SDS011;10076;52.008;4.708;2023-03-11T07:38:41;2.70;;;2.17;;
19830;SDS011;10076;52.008;4.708;2023-03-11T07:41:07;2.00;;;1.70;;
19830;SDS011;10076;52.008;4.708;2023-03-11T07:43:35;3.23;;;1.67;;
19830;SDS011;10076;52.008;4.708;2023-03-11T07:46:01;2.13;;;1.90;;
19830;SDS011;10076;52.008;4.708;2023-03-11T07:48:37;2.47;;;2.07;;
19830;SDS011;10076;52.008;4.708;2023-03-11T07:51:10;2.40;;;1.93;;
19830;SDS011;10076;52.008;4.708;2023-03-11T07:53:38;4.77;;;2.73;;
19830;SDS011;10076;52.008;4.708;2023-03-11T07:56:05;5.03;;;2.17;;
19830;SDS011;10076;52.008;4.708;2023-03-11T07:58:31;2.17;;;1.63;;
19830;SDS011;10076;52.008;4.708;2023-03-11T08:01:01;6.60;;;2.53;;
19830;SDS011;10076;52.008;4.708;2023-03-11T08:03:32;12.67;;;2.47;;
19830;SDS011;10076;52.008;4.708;2023-03-11T08:05:58;3.23;;;1.83;;
19830;SDS011;10076;52.008;4.708;2023-03-11T08:08:23;2.90;;;1.77;;
19830;SDS011;10076;52.008;4.708;2023-03-11T08:10:49;7.60;;;1.77;;
19830;SDS011;10076;52.008;4.708;2023-03-11T08:13:14;10.23;;;2.30;;
19830;SDS011;10076;52.008;4.708;2023-03-11T08:15:39;5.47;;;2.97;;
19830;SDS011;10076;52.008;4.708;2023-03-11T08:18:05;7.60;;;3.10;;
19830;SDS011;10076;52.008;4.708;2023-03-11T08:20:30;12.20;;;2.97;;
19830;SDS011;10076;52.008;4.708;2023-03-11T08:22:55;7.70;;;3.30;;
19830;SDS011;10076;52.008;4.708;2023-03-11T08:25:21;5.87;;;2.07;;
19830;SDS011;10076;52.008;4.708;2023-03-11T08:27:46;9.97;;;3.20;;
19830;SDS011;10076;52.008;4.708;2023-03-11T08:30:12;6.33;;;2.97;;
19830;SDS011;10076;52.008;4.708;2023-03-11T08:32:38;9.07;;;4.13;;
19830;SDS011;10076;52.008;4.708;2023-03-11T08:35:03;4.13;;;2.53;;
19830;SDS011;10076;52.008;4.708;2023-03-11T08:37:29;9.67;;;2.60;;
19830;SDS011;10076;52.008;4.708;2023-03-11T08:39:55;10.20;;;1.53;;
19830;SDS011;10076;52.008;4.708;2023-03-11T08:42:20;2.20;;;1.43;;
19830;SDS011;10076;52.008;4.708;2023-03-11T08:44:46;8.37;;;2.40;;
19830;SDS011;10076;52.008;4.708;2023-03-11T08:47:12;3.20;;;1.30;;
19830;SDS011;10076;52.008;4.708;2023-03-11T08:49:37;3.33;;;1.23;;
19830;SDS011;10076;52.008;4.708;2023-03-11T08:52:03;3.07;;;1.23;;
19830;SDS011;10076;52.008;4.708;2023-03-11T08:54:29;1.53;;;1.07;;
19830;SDS011;10076;52.008;4.708;2023-03-11T08:56:54;3.80;;;1.00;;
19830;SDS011;10076;52.008;4.708;2023-03-11T08:59:20;4.03;;;1.00;;
19830;SDS011;10076;52.008;4.708;2023-03-11T09:01:45;1.00;;;0.70;;
19830;SDS011;10076;52.008;4.708;2023-03-11T09:04:11;1.00;;;0.63;;
19830;SDS011;10076;52.008;4.708;2023-03-11T09:06:38;2.30;;;0.77;;
19830;SDS011;10076;52.008;4.708;2023-03-11T09:09:06;5.13;;;1.00;;
19830;SDS011;10076;52.008;4.708;2023-03-11T09:11:32;2.53;;;0.63;;
19830;SDS011;10076;52.008;4.708;2023-03-11T09:13:57;1.97;;;0.70;;
19830;SDS011;10076;52.008;4.708;2023-03-11T09:16:23;5.50;;;0.83;;
19830;SDS011;10076;52.008;4.708;2023-03-11T09:18:48;3.53;;;0.73;;
19830;SDS011;10076;52.008;4.708;2023-03-11T09:21:14;0.87;;;0.83;;
19830;SDS011;10076;52.008;4.708;2023-03-11T09:23:40;2.03;;;0.90;;
19830;SDS011;10076;52.008;4.708;2023-03-11T09:26:05;0.50;;;0.50;;
19830;SDS011;10076;52.008;4.708;2023-03-11T09:28:31;2.43;;;0.77;;
19830;SDS011;10076;52.008;4.708;2023-03-11T09:30:56;2.00;;;0.90;;
19830;SDS011;10076;52.008;4.708;2023-03-11T09:33:21;1.80;;;0.80;;
19830;SDS011;10076;52.008;4.708;2023-03-11T09:35:47;2.50;;;1.10;;
19830;SDS011;10076;52.008;4.708;2023-03-11T09:38:12;3.77;;;0.90;;
19830;SDS011;10076;52.008;4.708;2023-03-11T09:40:42;1.13;;;0.77;;
19830;SDS011;10076;52.008;4.708;2023-03-11T09:43:13;2.73;;;0.50;;
19830;SDS011;10076;52.008;4.708;2023-03-11T09:45:44;3.07;;;0.70;;
19830;SDS011;10076;52.008;4.708;2023-03-11T09:48:35;2.67;;;0.70;;
19830;SDS011;10076;52.008;4.708;2023-03-11T09:53:42;1.20;;;0.67;;
19830;SDS011;10076;52.008;4.708;2023-03-11T09:56:10;3.37;;;1.00;;
19830;SDS011;10076;52.008;4.708;2023-03-11T09:58:51;0.87;;;0.60;;
19830;SDS011;10076;52.008;4.708;2023-03-11T10:01:28;1.10;;;1.00;;
19830;SDS011;10076;52.008;4.708;2023-03-11T10:04:00;2.10;;;1.17;;
19830;SDS011;10076;52.008;4.708;2023-03-11T10:06:29;1.90;;;0.77;;
19830;SDS011;10076;52.008;4.708;2023-03-11T10:17:14;4.07;;;1.03;;
19830;SDS011;10076;52.008;4.708;2023-03-11T10:19:49;2.07;;;0.80;;
19830;SDS011;10076;52.008;4.708;2023-03-11T10:22:31;2.47;;;0.83;;
19830;SDS011;10076;52.008;4.708;2023-03-11T10:25:18;5.23;;;0.80;;
19830;SDS011;10076;52.008;4.708;2023-03-11T10:27:48;6.37;;;1.90;;
19830;SDS011;10076;52.008;4.708;2023-03-11T10:30:24;2.17;;;1.03;;
19830;SDS011;10076;52.008;4.708;2023-03-11T10:33:05;5.40;;;0.93;;
19830;SDS011;10076;52.008;4.708;2023-03-11T10:35:41;0.60;;;0.50;;
19830;SDS011;10076;52.008;4.708;2023-03-11T10:38:43;1.13;;;0.70;;
19830;SDS011;10076;52.008;4.708;2023-03-11T10:41:05;2.70;;;0.47;;
19830;SDS011;10076;52.008;4.708;2023-03-11T10:43:37;0.80;;;0.60;;
19830;SDS011;10076;52.008;4.708;2023-03-11T10:46:40;2.27;;;0.70;;
19830;SDS011;10076;52.008;4.708;2023-03-11T10:48:59;2.70;;;0.77;;
19830;SDS011;10076;52.008;4.708;2023-03-11T10:51:31;2.43;;;0.83;;
19830;SDS011;10076;52.008;4.708;2023-03-11T10:53:59;0.67;;;0.60;;
19830;SDS011;10076;52.008;4.708;2023-03-11T10:58:55;2.00;;;0.90;;
19830;SDS011;10076;52.008;4.708;2023-03-11T11:01:22;1.50;;;0.50;;
19830;SDS011;10076;52.008;4.708;2023-03-11T11:03:49;1.43;;;0.70;;
19830;SDS011;10076;52.008;4.708;2023-03-11T11:09:04;0.67;;;0.67;;
19830;SDS011;10076;52.008;4.708;2023-03-11T11:11:35;1.30;;;0.77;;
19830;SDS011;10076;52.008;4.708;2023-03-11T11:14:03;2.80;;;0.77;;
19830;SDS011;10076;52.008;4.708;2023-03-11T11:16:29;0.63;;;0.60;;
19830;SDS011;10076;52.008;4.708;2023-03-11T11:19:07;3.60;;;1.17;;
19830;SDS011;10076;52.008;4.708;2023-03-11T11:21:37;4.85;;;0.90;;
19830;SDS011;10076;52.008;4.708;2023-03-11T11:24:08;2.80;;;1.00;;
19830;SDS011;10076;52.008;4.708;2023-03-11T11:29:39;2.55;;;1.17;;
19830;SDS011;10076;52.008;4.708;2023-03-11T11:34:41;2.95;;;0.65;;
19830;SDS011;10076;52.008;4.708;2023-03-11T11:37:10;4.03;;;1.15;;
19830;SDS011;10076;52.008;4.708;2023-03-11T11:39:45;3.83;;;0.80;;
19830;SDS011;10076;52.008;4.708;2023-03-11T11:42:15;1.70;;;0.88;;
19830;SDS011;10076;52.008;4.708;2023-03-11T11:44:42;2.65;;;0.90;;
19830;SDS011;10076;52.008;4.708;2023-03-11T11:47:21;2.50;;;1.08;;
19830;SDS011;10076;52.008;4.708;2023-03-11T11:49:57;1.77;;;1.20;;
19830;SDS011;10076;52.008;4.708;2023-03-11T11:52:35;2.50;;;0.90;;
19830;SDS011;10076;52.008;4.708;2023-03-11T11:55:12;4.13;;;1.13;;
19830;SDS011;10076;52.008;4.708;2023-03-11T11:57:43;1.20;;;0.90;;
19830;SDS011;10076;52.008;4.708;2023-03-11T12:00:14;1.70;;;0.90;;
19830;SDS011;10076;52.008;4.708;2023-03-11T12:06:03;1.70;;;1.25;;
19830;SDS011;10076;52.008;4.708;2023-03-11T12:08:46;1.63;;;1.13;;
19830;SDS011;10076;52.008;4.708;2023-03-11T12:11:32;1.63;;;0.90;;
19830;SDS011;10076;52.008;4.708;2023-03-11T12:14:08;2.25;;;1.27;;
19830;SDS011;10076;52.008;4.708;2023-03-11T12:16:49;2.45;;;1.00;;
19830;SDS011;10076;52.008;4.708;2023-03-11T12:27:40;1.55;;;1.00;;
19830;SDS011;10076;52.008;4.708;2023-03-11T12:30:12;2.20;;;1.00;;
19830;SDS011;10076;52.008;4.708;2023-03-11T12:32:52;2.03;;;1.00;;
19830;SDS011;10076;52.008;4.708;2023-03-11T12:35:23;2.53;;;1.20;;
19830;SDS011;10076;52.008;4.708;2023-03-11T12:38:34;2.92;;;1.20;;
19830;SDS011;10076;52.008;4.708;2023-03-11T12:40:59;1.40;;;0.88;;
19830;SDS011;10076;52.008;4.708;2023-03-11T12:46:00;1.25;;;0.95;;
19830;SDS011;10076;52.008;4.708;2023-03-11T12:56:54;0.85;;;0.80;;
19830;SDS011;10076;52.008;4.708;2023-03-11T13:04:50;2.63;;;0.85;;
19830;SDS011;10076;52.008;4.708;2023-03-11T13:10:12;2.88;;;0.90;;
19830;SDS011;10076;52.008;4.708;2023-03-11T13:12:42;3.03;;;1.20;;
19830;SDS011;10076;52.008;4.708;2023-03-11T13:28:02;1.60;;;0.57;;
19830;SDS011;10076;52.008;4.708;2023-03-11T13:31:05;1.75;;;0.88;;
19830;SDS011;10076;52.008;4.708;2023-03-11T13:36:19;2.00;;;0.70;;
19830;SDS011;10076;52.008;4.708;2023-03-11T13:39:01;1.52;;;0.80;;
19830;SDS011;10076;52.008;4.708;2023-03-11T13:41:33;1.00;;;0.60;;
19830;SDS011;10076;52.008;4.708;2023-03-11T13:46:51;1.88;;;0.68;;
19830;SDS011;10076;52.008;4.708;2023-03-11T13:49:27;1.00;;;0.93;;
19830;SDS011;10076;52.008;4.708;2023-03-11T13:51:58;0.88;;;0.60;;
19830;SDS011;10076;52.008;4.708;2023-03-11T13:57:31;2.88;;;0.70;;
19830;SDS011;10076;52.008;4.708;2023-03-11T14:00:06;1.00;;;0.70;;
19830;SDS011;10076;52.008;4.708;2023-03-11T14:02:44;1.90;;;0.70;;
19830;SDS011;10076;52.008;4.708;2023-03-11T14:05:15;2.67;;;0.90;;
19830;SDS011;10076;52.008;4.708;2023-03-11T14:07:44;2.85;;;0.80;;
19830;SDS011;10076;52.008;4.708;2023-03-11T14:10:27;1.80;;;1.02;;
19830;SDS011;10076;52.008;4.708;2023-03-11T14:13:04;1.50;;;0.57;;
19830;SDS011;10076;52.008;4.708;2023-03-11T14:15:38;1.13;;;0.60;;
19830;SDS011;10076;52.008;4.708;2023-03-11T14:18:22;2.17;;;0.98;;
19830;SDS011;10076;52.008;4.708;2023-03-11T14:21:00;3.28;;;0.60;;
19830;SDS011;10076;52.008;4.708;2023-03-11T14:23:28;3.15;;;0.70;;
19830;SDS011;10076;52.008;4.708;2023-03-11T14:26:01;0.95;;;0.70;;
19830;SDS011;10076;52.008;4.708;2023-03-11T14:28:32;1.80;;;0.75;;
19830;SDS011;10076;52.008;4.708;2023-03-11T14:31:01;1.00;;;0.70;;
19830;SDS011;10076;52.008;4.708;2023-03-11T14:33:27;0.95;;;0.60;;
19830;SDS011;10076;52.008;4.708;2023-03-11T14:38:20;2.40;;;0.68;;
19830;SDS011;10076;52.008;4.708;2023-03-11T14:41:00;4.28;;;0.70;;
19830;SDS011;10076;52.008;4.708;2023-03-11T14:43:32;1.98;;;0.88;;
19830;SDS011;10076;52.008;4.708;2023-03-11T14:46:01;1.60;;;1.08;;
19830;SDS011;10076;52.008;4.708;2023-03-11T14:48:36;0.93;;;0.57;;
19830;SDS011;10076;52.008;4.708;2023-03-11T14:51:06;1.85;;;0.60;;
19830;SDS011;10076;52.008;4.708;2023-03-11T14:53:40;2.92;;;0.73;;
19830;SDS011;10076;52.008;4.708;2023-03-11T14:56:11;3.05;;;0.90;;
19830;SDS011;10076;52.008;4.708;2023-03-11T15:01:42;1.48;;;1.00;;
19830;SDS011;10076;52.008;4.708;2023-03-11T15:04:14;3.38;;;0.80;;
19830;SDS011;10076;52.008;4.708;2023-03-11T15:06:41;1.83;;;0.77;;
19830;SDS011;10076;52.008;4.708;2023-03-11T15:09:19;3.03;;;0.80;;
19830;SDS011;10076;52.008;4.708;2023-03-11T15:11:50;2.20;;;1.20;;
19830;SDS011;10076;52.008;4.708;2023-03-11T15:14:55;1.50;;;1.00;;
19830;SDS011;10076;52.008;4.708;2023-03-11T15:17:15;1.67;;;0.60;;
19830;SDS011;10076;52.008;4.708;2023-03-11T15:19:50;1.52;;;0.55;;
19830;SDS011;10076;52.008;4.708;2023-03-11T15:22:23;1.08;;;0.57;;
19830;SDS011;10076;52.008;4.708;2023-03-11T15:24:50;2.03;;;0.80;;
19830;SDS011;10076;52.008;4.708;2023-03-11T15:27:39;2.28;;;0.98;;
19830;SDS011;10076;52.008;4.708;2023-03-11T15:30:14;1.60;;;0.60;;
19830;SDS011;10076;52.008;4.708;2023-03-11T15:32:42;1.30;;;0.70;;
19830;SDS011;10076;52.008;4.708;2023-03-11T15:37:36;0.60;;;0.60;;
19830;SDS011;10076;52.008;4.708;2023-03-11T15:46:00;3.72;;;0.80;;
19830;SDS011;10076;52.008;4.708;2023-03-11T15:48:27;3.05;;;0.73;;
19830;SDS011;10076;52.008;4.708;2023-03-11T15:50:54;1.08;;;0.80;;
19830;SDS011;10076;52.008;4.708;2023-03-11T15:53:22;3.28;;;1.58;;
19830;SDS011;10076;52.008;4.708;2023-03-11T15:55:49;3.33;;;1.48;;
19830;SDS011;10076;52.008;4.708;2023-03-11T15:58:15;1.02;;;0.93;;
19830;SDS011;10076;52.008;4.708;2023-03-11T16:00:46;0.70;;;0.70;;
19830;SDS011;10076;52.008;4.708;2023-03-11T16:03:14;1.63;;;1.10;;
19830;SDS011;10076;52.008;4.708;2023-03-11T16:05:39;1.48;;;0.82;;
19830;SDS011;10076;52.008;4.708;2023-03-11T16:08:05;1.10;;;1.00;;
19830;SDS011;10076;52.008;4.708;2023-03-11T16:10:30;0.60;;;0.50;;
19830;SDS011;10076;52.008;4.708;2023-03-11T16:12:55;2.88;;;0.88;;
19830;SDS011;10076;52.008;4.708;2023-03-11T16:15:26;2.33;;;0.82;;
19830;SDS011;10076;52.008;4.708;2023-03-11T16:17:54;2.55;;;1.60;;
19830;SDS011;10076;52.008;4.708;2023-03-11T16:20:21;2.65;;;0.82;;
19830;SDS011;10076;52.008;4.708;2023-03-11T16:22:49;2.13;;;1.00;;
19830;SDS011;10076;52.008;4.708;2023-03-11T16:25:28;0.38;;;0.38;;
19830;SDS011;10076;52.008;4.708;2023-03-11T16:27:57;2.10;;;0.60;;
19830;SDS011;10076;52.008;4.708;2023-03-11T16:30:24;1.60;;;0.60;;
19830;SDS011;10076;52.008;4.708;2023-03-11T16:32:51;0.60;;;0.60;;